EWG7DB EDDH-LIPZ
Flight info
| Callsign | EWG7DB |
|---|---|
| Flight time | 1h 20m |
| Altitude | 35000 |
| Route | IDEKO8C IDEKO N850 WRB/N0446F370 N850 XAROL/N0442F360 DCT BOMBI DCT GIGET DCT ABUKA/N0439F370 DCT TEDGO DCT BATUB/N0406F290 M738 ADOSA L612 ALBET |
| Aircraft | A320/M-SDE3FGHIRWY/LB1 |
Departure
| Time | 2026-04-20 15:45 |
|---|---|
| Airport | Hamburg Helmut Schmidt Airport (EDDH) |
Arrival
| Time | 2026-04-20 17:05 |
|---|---|
| Airport | Venice Marco Polo Airport (LIPZ) |
| Time | Latitude | Longitude | Altitude | Speed | Heading |
|---|---|---|---|---|---|
| 2026-04-20 15:23 | 53.62842 | 10.00210 | 49 ft | 0 kts | 62° |
| 2026-04-20 15:37 | 53.62834 | 10.00184 | 48 ft | 4 kts | 62° |
| 2026-04-20 15:37 | 53.62822 | 10.00148 | 45 ft | 1 kts | 62° |
| 2026-04-20 15:38 | 53.62810 | 10.00118 | 45 ft | 4 kts | 17° |
| 2026-04-20 15:38 | 53.62786 | 10.00122 | 46 ft | 4 kts | 333° |
| 2026-04-20 15:38 | 53.62779 | 10.00128 | 46 ft | 0 kts | 333° |
| 2026-04-20 15:40 | 53.62783 | 10.00125 | 46 ft | 5 kts | 333° |
| 2026-04-20 15:41 | 53.62851 | 10.00044 | 48 ft | 13 kts | 298° |
| 2026-04-20 15:41 | 53.62799 | 9.99956 | 46 ft | 14 kts | 210° |
| 2026-04-20 15:41 | 53.62659 | 9.99814 | 46 ft | 23 kts | 232° |
| 2026-04-20 15:41 | 53.62617 | 9.99568 | 46 ft | 21 kts | 258° |
| 2026-04-20 15:42 | 53.62588 | 9.99312 | 47 ft | 28 kts | 259° |
| 2026-04-20 15:42 | 53.62544 | 9.98928 | 47 ft | 35 kts | 259° |
| 2026-04-20 15:42 | 53.62497 | 9.98525 | 47 ft | 35 kts | 259° |
| 2026-04-20 15:42 | 53.62452 | 9.98125 | 47 ft | 29 kts | 256° |
| 2026-04-20 15:43 | 53.62399 | 9.98030 | 47 ft | 6 kts | 231° |
| 2026-04-20 15:43 | 53.62330 | 9.97887 | 47 ft | 30 kts | 230° |
| 2026-04-20 15:43 | 53.62189 | 9.97598 | 47 ft | 26 kts | 238° |
| 2026-04-20 15:43 | 53.62237 | 9.97375 | 42 ft | 23 kts | 336° |
| 2026-04-20 15:44 | 53.62366 | 9.97468 | 40 ft | 22 kts | 50° |
| 2026-04-20 15:44 | 53.62527 | 9.97793 | 41 ft | 65 kts | 50° |
| 2026-04-20 15:44 | 53.62944 | 9.98634 | 45 ft | 122 kts | 50° |
| 2026-04-20 15:44 | 53.63537 | 9.99817 | 490 ft | 130 kts | 51° |
| 2026-04-20 15:45 | 53.64116 | 10.00987 | 1219 ft | 129 kts | 50° |
| 2026-04-20 15:45 | 53.64724 | 10.02227 | 1643 ft | 147 kts | 51° |
| 2026-04-20 15:45 | 53.65423 | 10.03665 | 1944 ft | 170 kts | 51° |
| 2026-04-20 15:45 | 53.66218 | 10.05297 | 2410 ft | 186 kts | 51° |
| 2026-04-20 15:46 | 53.67054 | 10.07007 | 3059 ft | 192 kts | 52° |
| 2026-04-20 15:46 | 53.67916 | 10.08768 | 3810 ft | 196 kts | 52° |
| 2026-04-20 15:46 | 53.68819 | 10.10484 | 4557 ft | 200 kts | 41° |
| 2026-04-20 15:46 | 53.70158 | 10.11316 | 5043 ft | 221 kts | 1° |
| 2026-04-20 15:47 | 53.71647 | 10.10315 | 5558 ft | 247 kts | 323° |
| 2026-04-20 15:47 | 53.72790 | 10.07936 | 5958 ft | 275 kts | 304° |
| 2026-04-20 15:47 | 53.73687 | 10.05047 | 6652 ft | 286 kts | 297° |
| 2026-04-20 15:47 | 53.74477 | 10.01919 | 7449 ft | 293 kts | 289° |
| 2026-04-20 15:48 | 53.74759 | 9.98473 | 8232 ft | 300 kts | 266° |
| 2026-04-20 15:48 | 53.74233 | 9.95068 | 9034 ft | 303 kts | 240° |
| 2026-04-20 15:48 | 53.72919 | 9.92237 | 9461 ft | 316 kts | 214° |
| 2026-04-20 15:48 | 53.70976 | 9.90620 | 10332 ft | 305 kts | 195° |
| 2026-04-20 15:49 | 53.68941 | 9.89397 | 10903 ft | 320 kts | 196° |
| 2026-04-20 15:49 | 53.66772 | 9.88034 | 11101 ft | 344 kts | 197° |
| 2026-04-20 15:49 | 53.64486 | 9.86558 | 11247 ft | 367 kts | 198° |
| 2026-04-20 15:49 | 53.62030 | 9.84953 | 11381 ft | 388 kts | 198° |
| 2026-04-20 15:50 | 53.59457 | 9.83265 | 11669 ft | 401 kts | 198° |
| 2026-04-20 15:50 | 53.56833 | 9.81542 | 12239 ft | 407 kts | 199° |
| 2026-04-20 15:50 | 53.54175 | 9.79805 | 12848 ft | 411 kts | 198° |
| 2026-04-20 15:50 | 53.51522 | 9.78084 | 13443 ft | 415 kts | 199° |
| 2026-04-20 15:51 | 53.48806 | 9.76333 | 14044 ft | 419 kts | 199° |
| 2026-04-20 15:51 | 53.46063 | 9.74576 | 14588 ft | 423 kts | 198° |
| 2026-04-20 15:51 | 53.43296 | 9.72812 | 15124 ft | 426 kts | 199° |
| 2026-04-20 15:51 | 53.40502 | 9.71033 | 15640 ft | 429 kts | 199° |
| 2026-04-20 15:52 | 53.37730 | 9.69268 | 16143 ft | 432 kts | 199° |
| 2026-04-20 15:52 | 53.34911 | 9.67474 | 16636 ft | 436 kts | 199° |
| 2026-04-20 15:52 | 53.32060 | 9.65660 | 17114 ft | 439 kts | 199° |
| 2026-04-20 15:53 | 53.26294 | 9.61995 | 18035 ft | 445 kts | 199° |
| 2026-04-20 15:53 | 53.23420 | 9.60177 | 18465 ft | 447 kts | 199° |
| 2026-04-20 15:53 | 53.20493 | 9.58326 | 18827 ft | 450 kts | 199° |
| 2026-04-20 15:53 | 53.17568 | 9.56480 | 19202 ft | 452 kts | 199° |
| 2026-04-20 15:54 | 53.14624 | 9.54624 | 19567 ft | 454 kts | 199° |
| 2026-04-20 15:54 | 53.11660 | 9.52751 | 19919 ft | 457 kts | 199° |
| 2026-04-20 15:54 | 53.08669 | 9.50867 | 20273 ft | 459 kts | 199° |
| 2026-04-20 15:54 | 53.05682 | 9.48993 | 20621 ft | 461 kts | 200° |
| 2026-04-20 15:55 | 53.02659 | 9.47097 | 20963 ft | 462 kts | 200° |
| 2026-04-20 15:55 | 52.99637 | 9.45408 | 21290 ft | 463 kts | 193° |
| 2026-04-20 15:55 | 52.96463 | 9.44401 | 21616 ft | 463 kts | 186° |
| 2026-04-20 15:55 | 52.93249 | 9.43728 | 21941 ft | 464 kts | 186° |
| 2026-04-20 15:56 | 52.90038 | 9.43053 | 22244 ft | 466 kts | 186° |
| 2026-04-20 15:56 | 52.86816 | 9.42369 | 22545 ft | 468 kts | 186° |
| 2026-04-20 15:56 | 52.83585 | 9.41675 | 22826 ft | 469 kts | 186° |
| 2026-04-20 15:56 | 52.80371 | 9.40983 | 23107 ft | 471 kts | 186° |
| 2026-04-20 15:57 | 52.77116 | 9.40283 | 23385 ft | 472 kts | 186° |
| 2026-04-20 15:57 | 52.73837 | 9.39584 | 23640 ft | 474 kts | 186° |
| 2026-04-20 15:57 | 52.70556 | 9.38892 | 23860 ft | 475 kts | 186° |
| 2026-04-20 15:57 | 52.67309 | 9.38209 | 24063 ft | 476 kts | 186° |
| 2026-04-20 15:58 | 52.64005 | 9.37513 | 24292 ft | 476 kts | 186° |
| 2026-04-20 15:58 | 52.60721 | 9.36800 | 24603 ft | 475 kts | 187° |
| 2026-04-20 15:58 | 52.57456 | 9.36001 | 24906 ft | 474 kts | 187° |
| 2026-04-20 15:58 | 52.54183 | 9.35131 | 25208 ft | 473 kts | 188° |
| 2026-04-20 15:59 | 52.50980 | 9.34246 | 25521 ft | 471 kts | 188° |
| 2026-04-20 15:59 | 52.47744 | 9.33346 | 25841 ft | 470 kts | 188° |
| 2026-04-20 15:59 | 52.44508 | 9.32461 | 26175 ft | 468 kts | 188° |
| 2026-04-20 15:59 | 52.41289 | 9.31608 | 26504 ft | 467 kts | 187° |
| 2026-04-20 16:00 | 52.38122 | 9.30785 | 26832 ft | 465 kts | 187° |
| 2026-04-20 16:00 | 52.34931 | 9.29965 | 27173 ft | 463 kts | 187° |
| 2026-04-20 16:00 | 52.31740 | 9.29146 | 27541 ft | 462 kts | 187° |
| 2026-04-20 16:00 | 52.28562 | 9.28328 | 27897 ft | 461 kts | 187° |
| 2026-04-20 16:01 | 52.25388 | 9.27506 | 28265 ft | 459 kts | 187° |
| 2026-04-20 16:01 | 52.22273 | 9.26708 | 28617 ft | 457 kts | 185° |
| 2026-04-20 16:01 | 52.19118 | 9.26016 | 28973 ft | 456 kts | 185° |
| 2026-04-20 16:01 | 52.15972 | 9.25434 | 29334 ft | 454 kts | 184° |
| 2026-04-20 16:02 | 52.12828 | 9.24914 | 29692 ft | 452 kts | 184° |
| 2026-04-20 16:02 | 52.09692 | 9.24412 | 30083 ft | 451 kts | 184° |
| 2026-04-20 16:02 | 52.06578 | 9.23907 | 30418 ft | 449 kts | 184° |
| 2026-04-20 16:02 | 52.03479 | 9.23342 | 30685 ft | 449 kts | 186° |
| 2026-04-20 16:03 | 52.00369 | 9.22616 | 30932 ft | 450 kts | 188° |
| 2026-04-20 16:03 | 51.97278 | 9.21784 | 31166 ft | 451 kts | 188° |
| 2026-04-20 16:03 | 51.94220 | 9.20914 | 31404 ft | 451 kts | 189° |
| 2026-04-20 16:03 | 51.91118 | 9.20028 | 31642 ft | 452 kts | 189° |
| 2026-04-20 16:04 | 51.87994 | 9.19158 | 31869 ft | 453 kts | 189° |
| 2026-04-20 16:04 | 51.84866 | 9.18371 | 32108 ft | 454 kts | 188° |
| 2026-04-20 16:04 | 51.81773 | 9.17681 | 32339 ft | 455 kts | 188° |
| 2026-04-20 16:04 | 51.78625 | 9.17034 | 32567 ft | 456 kts | 187° |
| 2026-04-20 16:05 | 51.75480 | 9.16407 | 32794 ft | 457 kts | 188° |
| 2026-04-20 16:05 | 51.72314 | 9.15772 | 33036 ft | 457 kts | 188° |
| 2026-04-20 16:05 | 51.69179 | 9.15127 | 33294 ft | 458 kts | 188° |
| 2026-04-20 16:05 | 51.65989 | 9.14451 | 33552 ft | 458 kts | 189° |
| 2026-04-20 16:06 | 51.62866 | 9.13772 | 33807 ft | 458 kts | 189° |
| 2026-04-20 16:06 | 51.59701 | 9.13074 | 34058 ft | 458 kts | 189° |
| 2026-04-20 16:06 | 51.56539 | 9.12376 | 34275 ft | 459 kts | 189° |
| 2026-04-20 16:06 | 51.53362 | 9.11683 | 34485 ft | 459 kts | 189° |
| 2026-04-20 16:07 | 51.50196 | 9.10988 | 34690 ft | 459 kts | 191° |
| 2026-04-20 16:07 | 51.47034 | 9.10134 | 34897 ft | 458 kts | 193° |
| 2026-04-20 16:07 | 51.44961 | 9.09471 | 35031 ft | 458 kts | 194° |
| 2026-04-20 16:07 | 51.41843 | 9.08364 | 35144 ft | 460 kts | 195° |
| 2026-04-20 16:08 | 51.35550 | 9.06018 | 35165 ft | 469 kts | 195° |
| 2026-04-20 16:08 | 51.29104 | 9.03845 | 35164 ft | 475 kts | 192° |
| 2026-04-20 16:09 | 51.22537 | 9.02473 | 35159 ft | 478 kts | 188° |
| 2026-04-20 16:09 | 51.15913 | 9.01425 | 35158 ft | 478 kts | 188° |
| 2026-04-20 16:10 | 51.09334 | 9.00248 | 35158 ft | 478 kts | 190° |
| 2026-04-20 16:10 | 51.02709 | 8.98900 | 35157 ft | 478 kts | 191° |
| 2026-04-20 16:11 | 50.96142 | 8.97548 | 35154 ft | 478 kts | 191° |
| 2026-04-20 16:11 | 50.89534 | 8.96227 | 35147 ft | 478 kts | 190° |
| 2026-04-20 16:12 | 50.82929 | 8.94942 | 35140 ft | 477 kts | 190° |
| 2026-04-20 16:12 | 50.76325 | 8.93663 | 35134 ft | 477 kts | 191° |
| 2026-04-20 16:13 | 50.69754 | 8.92386 | 35128 ft | 477 kts | 191° |
| 2026-04-20 16:13 | 50.63181 | 8.91098 | 35132 ft | 478 kts | 191° |
| 2026-04-20 16:14 | 50.56605 | 8.89907 | 35132 ft | 481 kts | 185° |
| 2026-04-20 16:14 | 50.53257 | 8.90398 | 35132 ft | 488 kts | 169° |
| 2026-04-20 16:14 | 50.49981 | 8.91957 | 35134 ft | 491 kts | 165° |
| 2026-04-20 16:15 | 50.43425 | 8.95386 | 35118 ft | 492 kts | 165° |
| 2026-04-20 16:15 | 50.37021 | 8.98778 | 35113 ft | 492 kts | 165° |
| 2026-04-20 16:16 | 50.30521 | 9.02178 | 35108 ft | 492 kts | 165° |
| 2026-04-20 16:16 | 50.23997 | 9.05552 | 35103 ft | 493 kts | 166° |
| 2026-04-20 16:17 | 50.17464 | 9.08912 | 35101 ft | 493 kts | 166° |
| 2026-04-20 16:17 | 50.10902 | 9.12284 | 35093 ft | 494 kts | 166° |
| 2026-04-20 16:18 | 50.04413 | 9.15496 | 35097 ft | 494 kts | 167° |
| 2026-04-20 16:18 | 49.97840 | 9.18642 | 35094 ft | 494 kts | 167° |
| 2026-04-20 16:19 | 49.91260 | 9.21812 | 35088 ft | 494 kts | 167° |
| 2026-04-20 16:19 | 49.84679 | 9.24990 | 35091 ft | 495 kts | 167° |
| 2026-04-20 16:20 | 49.78093 | 9.28172 | 35087 ft | 496 kts | 167° |
| 2026-04-20 16:20 | 49.71500 | 9.31354 | 35099 ft | 496 kts | 167° |
| 2026-04-20 16:21 | 49.64893 | 9.34524 | 35092 ft | 496 kts | 168° |
| 2026-04-20 16:21 | 49.58329 | 9.37655 | 35094 ft | 497 kts | 168° |
| 2026-04-20 16:22 | 49.51711 | 9.40806 | 35095 ft | 497 kts | 168° |
| 2026-04-20 16:22 | 49.45089 | 9.43952 | 35095 ft | 497 kts | 168° |
| 2026-04-20 16:23 | 49.38493 | 9.47077 | 35092 ft | 497 kts | 168° |
| 2026-04-20 16:23 | 49.31869 | 9.50213 | 35094 ft | 497 kts | 168° |
| 2026-04-20 16:24 | 49.25243 | 9.53335 | 35096 ft | 497 kts | 168° |
| 2026-04-20 16:24 | 49.18650 | 9.56429 | 35101 ft | 497 kts | 168° |
| 2026-04-20 16:25 | 49.12022 | 9.59531 | 35104 ft | 497 kts | 168° |
| 2026-04-20 16:25 | 49.05396 | 9.62633 | 35111 ft | 497 kts | 168° |
| 2026-04-20 16:26 | 48.98782 | 9.65713 | 35112 ft | 497 kts | 168° |
| 2026-04-20 16:26 | 48.92158 | 9.68795 | 35100 ft | 496 kts | 168° |
| 2026-04-20 16:27 | 48.85578 | 9.71841 | 35089 ft | 496 kts | 168° |
| 2026-04-20 16:27 | 48.78962 | 9.74906 | 35079 ft | 496 kts | 168° |
| 2026-04-20 16:28 | 48.72371 | 9.77949 | 35072 ft | 496 kts | 168° |
| 2026-04-20 16:28 | 48.65744 | 9.81001 | 35072 ft | 496 kts | 168° |
| 2026-04-20 16:29 | 48.59166 | 9.84010 | 35072 ft | 495 kts | 168° |
| 2026-04-20 16:29 | 48.52545 | 9.87030 | 35077 ft | 495 kts | 168° |
| 2026-04-20 16:30 | 48.45985 | 9.90017 | 35072 ft | 495 kts | 168° |
| 2026-04-20 16:30 | 48.39953 | 9.92764 | 35072 ft | 495 kts | 168° |
| 2026-04-20 16:31 | 48.33365 | 9.95749 | 35068 ft | 494 kts | 168° |
| 2026-04-20 16:31 | 48.26781 | 9.98730 | 35069 ft | 493 kts | 168° |
| 2026-04-20 16:32 | 48.20231 | 10.01693 | 35066 ft | 493 kts | 168° |
| 2026-04-20 16:32 | 48.13634 | 10.04661 | 35066 ft | 493 kts | 168° |
| 2026-04-20 16:33 | 48.07086 | 10.07590 | 35062 ft | 493 kts | 168° |
| 2026-04-20 16:33 | 48.00505 | 10.10533 | 35067 ft | 493 kts | 168° |
| 2026-04-20 16:34 | 47.93923 | 10.13468 | 35063 ft | 492 kts | 168° |
| 2026-04-20 16:34 | 47.87385 | 10.16372 | 35061 ft | 492 kts | 168° |
| 2026-04-20 16:35 | 47.80809 | 10.19292 | 35060 ft | 492 kts | 168° |
| 2026-04-20 16:35 | 47.74238 | 10.22211 | 35067 ft | 492 kts | 168° |
| 2026-04-20 16:36 | 47.67672 | 10.25124 | 35065 ft | 492 kts | 168° |
| 2026-04-20 16:36 | 47.61140 | 10.27993 | 35070 ft | 491 kts | 168° |
| 2026-04-20 16:37 | 47.54560 | 10.30873 | 35075 ft | 491 kts | 168° |
| 2026-04-20 16:37 | 47.48007 | 10.33743 | 35071 ft | 490 kts | 168° |
| 2026-04-20 16:38 | 47.41502 | 10.36594 | 35073 ft | 490 kts | 168° |
| 2026-04-20 16:38 | 47.34951 | 10.39450 | 35075 ft | 489 kts | 168° |
| 2026-04-20 16:39 | 47.28443 | 10.42280 | 35066 ft | 489 kts | 168° |
| 2026-04-20 16:39 | 47.21904 | 10.45120 | 35074 ft | 489 kts | 168° |
| 2026-04-20 16:40 | 47.15364 | 10.47951 | 35056 ft | 488 kts | 168° |
| 2026-04-20 16:40 | 47.08897 | 10.50745 | 35062 ft | 488 kts | 168° |
| 2026-04-20 16:41 | 47.02369 | 10.53552 | 35049 ft | 487 kts | 168° |
| 2026-04-20 16:41 | 46.95867 | 10.56336 | 35036 ft | 486 kts | 168° |
| 2026-04-20 16:42 | 46.89362 | 10.59113 | 35026 ft | 486 kts | 168° |
| 2026-04-20 16:42 | 46.82899 | 10.61987 | 35019 ft | 487 kts | 165° |
| 2026-04-20 16:43 | 46.76512 | 10.65417 | 35017 ft | 488 kts | 162° |
| 2026-04-20 16:43 | 46.70150 | 10.68636 | 35003 ft | 483 kts | 171° |
| 2026-04-20 16:44 | 46.63604 | 10.70881 | 34978 ft | 481 kts | 172° |
| 2026-04-20 16:44 | 46.58147 | 10.72615 | 34988 ft | 482 kts | 172° |
| 2026-04-20 16:45 | 46.51588 | 10.74698 | 34979 ft | 482 kts | 172° |
| 2026-04-20 16:45 | 46.45021 | 10.76816 | 34988 ft | 483 kts | 172° |
| 2026-04-20 16:46 | 46.38466 | 10.78950 | 34987 ft | 482 kts | 171° |
| 2026-04-20 16:46 | 46.31924 | 10.81087 | 34995 ft | 482 kts | 172° |
| 2026-04-20 16:47 | 46.25356 | 10.83212 | 34997 ft | 482 kts | 172° |
| 2026-04-20 16:47 | 46.18899 | 10.85291 | 34984 ft | 471 kts | 172° |
| 2026-04-20 16:48 | 46.12521 | 10.87335 | 34318 ft | 470 kts | 172° |
| 2026-04-20 16:48 | 46.09333 | 10.88359 | 33451 ft | 467 kts | 172° |
| 2026-04-20 16:48 | 46.06164 | 10.89375 | 32450 ft | 468 kts | 172° |
| 2026-04-20 16:49 | 46.02968 | 10.90395 | 31524 ft | 470 kts | 172° |
| 2026-04-20 16:49 | 45.99770 | 10.91415 | 30597 ft | 471 kts | 172° |
| 2026-04-20 16:49 | 45.96604 | 10.92431 | 29742 ft | 470 kts | 171° |
| 2026-04-20 16:49 | 45.93399 | 10.93460 | 28862 ft | 469 kts | 171° |
| 2026-04-20 16:50 | 45.90212 | 10.94482 | 28029 ft | 466 kts | 171° |
| 2026-04-20 16:50 | 45.87054 | 10.95491 | 27222 ft | 463 kts | 171° |
| 2026-04-20 16:50 | 45.83945 | 10.96477 | 26439 ft | 460 kts | 171° |
| 2026-04-20 16:50 | 45.80821 | 10.97465 | 25671 ft | 457 kts | 171° |
| 2026-04-20 16:51 | 45.77721 | 10.98445 | 24927 ft | 454 kts | 171° |
| 2026-04-20 16:51 | 45.74644 | 10.99415 | 24245 ft | 451 kts | 171° |
| 2026-04-20 16:51 | 45.71592 | 11.00391 | 23655 ft | 447 kts | 169° |
| 2026-04-20 16:51 | 45.68636 | 11.01809 | 22969 ft | 447 kts | 160° |
| 2026-04-20 16:52 | 45.65895 | 11.03888 | 22277 ft | 448 kts | 149° |
| 2026-04-20 16:52 | 45.63423 | 11.06603 | 21611 ft | 447 kts | 139° |
| 2026-04-20 16:52 | 45.61301 | 11.09857 | 20962 ft | 446 kts | 129° |
| 2026-04-20 16:52 | 45.59560 | 11.13508 | 20374 ft | 443 kts | 123° |
| 2026-04-20 16:53 | 45.57930 | 11.17159 | 19807 ft | 439 kts | 123° |
| 2026-04-20 16:53 | 45.56280 | 11.20831 | 19236 ft | 436 kts | 123° |
| 2026-04-20 16:53 | 45.54648 | 11.24455 | 18688 ft | 432 kts | 123° |
| 2026-04-20 16:53 | 45.53023 | 11.28057 | 18134 ft | 429 kts | 123° |
| 2026-04-20 16:54 | 45.51401 | 11.31640 | 17507 ft | 427 kts | 123° |
| 2026-04-20 16:54 | 45.49814 | 11.35145 | 16897 ft | 424 kts | 123° |
| 2026-04-20 16:54 | 45.48201 | 11.38714 | 16298 ft | 421 kts | 122° |
| 2026-04-20 16:54 | 45.46631 | 11.42187 | 15720 ft | 419 kts | 123° |
| 2026-04-20 16:55 | 45.45059 | 11.45652 | 15141 ft | 416 kts | 123° |
| 2026-04-20 16:55 | 45.43504 | 11.49125 | 14579 ft | 413 kts | 119° |
| 2026-04-20 16:55 | 45.42381 | 11.52869 | 14028 ft | 409 kts | 105° |
| 2026-04-20 16:55 | 45.41748 | 11.56795 | 13440 ft | 404 kts | 101° |
| 2026-04-20 16:56 | 45.41156 | 11.60691 | 12845 ft | 401 kts | 101° |
| 2026-04-20 16:56 | 45.40569 | 11.64552 | 12246 ft | 396 kts | 101° |
| 2026-04-20 16:56 | 45.39986 | 11.68361 | 11654 ft | 392 kts | 101° |
| 2026-04-20 16:56 | 45.39412 | 11.72084 | 11097 ft | 387 kts | 101° |
| 2026-04-20 16:57 | 45.38846 | 11.75754 | 10515 ft | 370 kts | 101° |
| 2026-04-20 16:57 | 45.38306 | 11.79248 | 9973 ft | 352 kts | 102° |
| 2026-04-20 16:57 | 45.37779 | 11.82634 | 9374 ft | 337 kts | 102° |
| 2026-04-20 16:57 | 45.37280 | 11.85814 | 8769 ft | 325 kts | 102° |
| 2026-04-20 16:58 | 45.36801 | 11.88863 | 8326 ft | 311 kts | 102° |
| 2026-04-20 16:58 | 45.36343 | 11.91769 | 8321 ft | 282 kts | 102° |
| 2026-04-20 16:58 | 45.35941 | 11.94334 | 8312 ft | 258 kts | 102° |
| 2026-04-20 16:58 | 45.35556 | 11.96796 | 8201 ft | 252 kts | 102° |
| 2026-04-20 16:59 | 45.35178 | 11.99215 | 7881 ft | 250 kts | 102° |
| 2026-04-20 16:59 | 45.34798 | 12.01633 | 7539 ft | 249 kts | 102° |
| 2026-04-20 16:59 | 45.34421 | 12.04028 | 7206 ft | 248 kts | 102° |
| 2026-04-20 16:59 | 45.34043 | 12.06425 | 6768 ft | 252 kts | 102° |
| 2026-04-20 17:00 | 45.33401 | 12.11501 | 5562 ft | 260 kts | 83° |
| 2026-04-20 17:00 | 45.33987 | 12.13860 | 5063 ft | 252 kts | 51° |
| 2026-04-20 17:00 | 45.35162 | 12.15628 | 4505 ft | 248 kts | 39° |
| 2026-04-20 17:01 | 45.36467 | 12.17229 | 3901 ft | 247 kts | 39° |
| 2026-04-20 17:01 | 45.37736 | 12.18818 | 3289 ft | 238 kts | 40° |
| 2026-04-20 17:01 | 45.38951 | 12.20367 | 2733 ft | 228 kts | 41° |
| 2026-04-20 17:01 | 45.40096 | 12.21832 | 2422 ft | 213 kts | 42° |
| 2026-04-20 17:02 | 45.41173 | 12.23209 | 2107 ft | 203 kts | 42° |
| 2026-04-20 17:02 | 45.42182 | 12.24500 | 1835 ft | 192 kts | 43° |
| 2026-04-20 17:02 | 45.43149 | 12.25737 | 1591 ft | 181 kts | 43° |
| 2026-04-20 17:02 | 45.44056 | 12.26898 | 1357 ft | 169 kts | 45° |
| 2026-04-20 17:03 | 45.44908 | 12.28003 | 1112 ft | 161 kts | 44° |
| 2026-04-20 17:03 | 45.45731 | 12.29055 | 884 ft | 159 kts | 44° |
| 2026-04-20 17:03 | 45.46554 | 12.30080 | 719 ft | 158 kts | 45° |
| 2026-04-20 17:03 | 45.47368 | 12.31142 | 577 ft | 160 kts | 45° |
| 2026-04-20 17:04 | 45.48181 | 12.32180 | 398 ft | 156 kts | 44° |
| 2026-04-20 17:04 | 45.48965 | 12.33189 | 171 ft | 149 kts | 46° |
| 2026-04-20 17:04 | 45.49740 | 12.34197 | 16 ft | 144 kts | 45° |
| 2026-04-20 17:04 | 45.50356 | 12.34989 | 13 ft | 94 kts | 43° |
| 2026-04-20 17:05 | 45.50672 | 12.35352 | 15 ft | 35 kts | 25° |
| 2026-04-20 17:05 | 45.50861 | 12.35443 | 16 ft | 22 kts | 12° |
| 2026-04-20 17:05 | 45.50957 | 12.35450 | 17 ft | 11 kts | 333° |
| 2026-04-20 17:05 | 45.50981 | 12.35365 | 18 ft | 9 kts | 261° |
| 2026-04-20 17:06 | 45.50969 | 12.35276 | 17 ft | 11 kts | 256° |
| 2026-04-20 17:06 | 45.50893 | 12.35123 | 16 ft | 22 kts | 224° |
| 2026-04-20 17:06 | 45.50771 | 12.34968 | 16 ft | 24 kts | 222° |
| 2026-04-20 17:06 | 45.50642 | 12.34801 | 16 ft | 26 kts | 222° |
| 2026-04-20 17:07 | 45.50511 | 12.34633 | 16 ft | 17 kts | 223° |
| 2026-04-20 17:07 | 45.50530 | 12.34513 | 16 ft | 14 kts | 312° |
| 2026-04-20 17:07 | 45.50590 | 12.34418 | 16 ft | 13 kts | 311° |
| 2026-04-20 17:07 | 45.50646 | 12.34329 | 16 ft | 11 kts | 312° |
| 2026-04-20 17:08 | 45.50697 | 12.34249 | 16 ft | 10 kts | 312° |
| 2026-04-20 17:08 | 45.50743 | 12.34177 | 16 ft | 9 kts | 312° |
| 2026-04-20 17:08 | 45.50776 | 12.34104 | 16 ft | 8 kts | 295° |
| 2026-04-20 17:08 | 45.50803 | 12.34036 | 16 ft | 9 kts | 307° |
| 2026-04-20 17:09 | 45.50834 | 12.33955 | 15 ft | 7 kts | 256° |
| 2026-04-20 17:09 | 45.50808 | 12.33915 | 15 ft | 2 kts | 222° |
| 2026-04-20 17:09 | 45.50806 | 12.33913 | 16 ft | 0 kts | 220° |
| 2026-04-20 17:09 | 45.50804 | 12.33910 | 15 ft | 0 kts | 221° |